Big Lake, Indiana
Current Conditions -  °F | °C
As of 1:54 AM on Monday 22 Dec 2014 (Local Time) from KFWA Reporting Station
Haze Haze  
Wind Chill: -8°   Ceiling: 22000
Heat Index: -4°   Visibility: 4mi
Dew Point: -6°   Wind: 6mph
Humidity: 88%   Direction: 90°E
Pressure: 30.09"   Gusts: NA
Location:  41.1479°N, 85.4772°W
Report Text: KFWA 220654Z 09005KT 4SM BR BKN220 M04/M06 A3009 RMK AO2 SLP197 T10391056
Loading
Personal Weather Stations






























Interactive Weather Map New forecast layout! Learn more

10-Day Weather Forecast

Advertisements
Track Severe Weather on mobile